sim
Sign-in with your pilot id or email,
or register
Callsign
Passwort

Schedule Details

Flight Number: RYR5797 (4)
Departure: Frankfurt Hahn Airport (EDFH) at 16:25
Arrival: Thessaloniki International Airport (LGTS) at 19:00
Route: Ryanair Passenger Schedule. Enter filed route here before submitting Pirep.

Weather Information
Getting current METAR information for EDFH 230550Z 07004KT 040V110 CAVOK 16/09 Q1026
Getting current METAR information for LGTS 230550Z VRB02KT CAVOK 27/18 Q1019 NOSIG

Schedule Frequency

Route Map